sensor_id;sensor_type;location;lat;lon;timestamp;P1;durP1;ratioP1;P2;durP2;ratioP2
14484;SDS011;7328;50.812;4.422;2022-11-24T00:00:25;21.80;;;4.43;;
14484;SDS011;7328;50.812;4.422;2022-11-24T00:02:51;11.13;;;4.10;;
14484;SDS011;7328;50.812;4.422;2022-11-24T00:05:17;18.37;;;4.53;;
14484;SDS011;7328;50.812;4.422;2022-11-24T00:07:43;9.67;;;2.83;;
14484;SDS011;7328;50.812;4.422;2022-11-24T00:10:09;12.73;;;4.20;;
14484;SDS011;7328;50.812;4.422;2022-11-24T00:12:34;14.60;;;5.17;;
14484;SDS011;7328;50.812;4.422;2022-11-24T00:15:00;17.00;;;4.00;;
14484;SDS011;7328;50.812;4.422;2022-11-24T00:17:26;17.37;;;4.20;;
14484;SDS011;7328;50.812;4.422;2022-11-24T00:19:53;12.67;;;4.33;;
14484;SDS011;7328;50.812;4.422;2022-11-24T00:22:20;17.03;;;4.57;;
14484;SDS011;7328;50.812;4.422;2022-11-24T00:24:46;15.50;;;5.83;;
14484;SDS011;7328;50.812;4.422;2022-11-24T00:27:11;14.20;;;4.03;;
14484;SDS011;7328;50.812;4.422;2022-11-24T00:29:37;15.53;;;4.83;;
14484;SDS011;7328;50.812;4.422;2022-11-24T00:32:03;21.33;;;5.03;;
14484;SDS011;7328;50.812;4.422;2022-11-24T00:34:33;15.57;;;5.63;;
14484;SDS011;7328;50.812;4.422;2022-11-24T00:36:59;11.63;;;4.13;;
14484;SDS011;7328;50.812;4.422;2022-11-24T00:39:24;20.23;;;5.60;;
14484;SDS011;7328;50.812;4.422;2022-11-24T00:41:50;18.93;;;5.27;;
14484;SDS011;7328;50.812;4.422;2022-11-24T00:44:16;12.63;;;4.37;;
14484;SDS011;7328;50.812;4.422;2022-11-24T00:46:42;12.80;;;4.93;;
14484;SDS011;7328;50.812;4.422;2022-11-24T00:49:11;20.20;;;6.07;;
14484;SDS011;7328;50.812;4.422;2022-11-24T00:51:40;17.67;;;5.87;;
14484;SDS011;7328;50.812;4.422;2022-11-24T00:54:07;28.47;;;6.37;;
14484;SDS011;7328;50.812;4.422;2022-11-24T00:56:33;16.27;;;4.70;;
14484;SDS011;7328;50.812;4.422;2022-11-24T00:58:59;27.63;;;5.43;;
14484;SDS011;7328;50.812;4.422;2022-11-24T01:01:26;17.43;;;5.37;;
14484;SDS011;7328;50.812;4.422;2022-11-24T01:03:56;20.33;;;4.33;;
14484;SDS011;7328;50.812;4.422;2022-11-24T01:06:29;15.07;;;4.53;;
14484;SDS011;7328;50.812;4.422;2022-11-24T01:08:56;34.23;;;7.50;;
14484;SDS011;7328;50.812;4.422;2022-11-24T01:11:24;31.43;;;6.27;;
14484;SDS011;7328;50.812;4.422;2022-11-24T01:13:53;23.27;;;4.53;;
14484;SDS011;7328;50.812;4.422;2022-11-24T01:16:24;10.83;;;4.97;;
14484;SDS011;7328;50.812;4.422;2022-11-24T01:18:58;22.80;;;5.37;;
14484;SDS011;7328;50.812;4.422;2022-11-24T01:21:25;22.93;;;5.37;;
14484;SDS011;7328;50.812;4.422;2022-11-24T01:23:51;39.77;;;6.20;;
14484;SDS011;7328;50.812;4.422;2022-11-24T01:26:18;13.77;;;5.23;;
14484;SDS011;7328;50.812;4.422;2022-11-24T01:28:45;16.73;;;5.80;;
14484;SDS011;7328;50.812;4.422;2022-11-24T01:31:12;19.07;;;5.00;;
14484;SDS011;7328;50.812;4.422;2022-11-24T01:33:38;16.83;;;5.07;;
14484;SDS011;7328;50.812;4.422;2022-11-24T01:36:04;28.30;;;5.57;;
14484;SDS011;7328;50.812;4.422;2022-11-24T01:38:30;21.10;;;5.83;;
14484;SDS011;7328;50.812;4.422;2022-11-24T01:41:38;18.83;;;4.70;;
14484;SDS011;7328;50.812;4.422;2022-11-24T01:43:47;21.00;;;4.73;;
14484;SDS011;7328;50.812;4.422;2022-11-24T01:51:33;21.00;;;3.80;;
14484;SDS011;7328;50.812;4.422;2022-11-24T01:54:07;18.67;;;5.53;;
14484;SDS011;7328;50.812;4.422;2022-11-24T01:56:35;14.27;;;4.80;;
14484;SDS011;7328;50.812;4.422;2022-11-24T01:59:04;11.80;;;4.60;;
14484;SDS011;7328;50.812;4.422;2022-11-24T02:01:32;27.33;;;6.63;;
14484;SDS011;7328;50.812;4.422;2022-11-24T02:03:58;27.13;;;6.30;;
14484;SDS011;7328;50.812;4.422;2022-11-24T02:06:28;20.17;;;4.50;;
14484;SDS011;7328;50.812;4.422;2022-11-24T02:09:39;18.07;;;4.77;;
14484;SDS011;7328;50.812;4.422;2022-11-24T02:11:57;21.90;;;6.03;;
14484;SDS011;7328;50.812;4.422;2022-11-24T02:14:25;17.80;;;5.07;;
14484;SDS011;7328;50.812;4.422;2022-11-24T02:16:51;18.93;;;4.80;;
14484;SDS011;7328;50.812;4.422;2022-11-24T02:22:52;24.67;;;6.03;;
14484;SDS011;7328;50.812;4.422;2022-11-24T02:27:36;23.73;;;5.07;;
14484;SDS011;7328;50.812;4.422;2022-11-24T02:30:02;24.20;;;6.50;;
14484;SDS011;7328;50.812;4.422;2022-11-24T02:32:28;17.20;;;5.23;;
14484;SDS011;7328;50.812;4.422;2022-11-24T02:34:59;16.83;;;5.47;;
14484;SDS011;7328;50.812;4.422;2022-11-24T02:37:26;16.70;;;4.70;;
14484;SDS011;7328;50.812;4.422;2022-11-24T02:39:52;17.50;;;6.03;;
14484;SDS011;7328;50.812;4.422;2022-11-24T02:42:17;26.83;;;6.37;;
14484;SDS011;7328;50.812;4.422;2022-11-24T02:44:45;17.97;;;5.67;;
14484;SDS011;7328;50.812;4.422;2022-11-24T02:47:14;15.70;;;5.07;;
14484;SDS011;7328;50.812;4.422;2022-11-24T02:49:40;16.33;;;3.93;;
14484;SDS011;7328;50.812;4.422;2022-11-24T02:52:06;22.03;;;5.23;;
14484;SDS011;7328;50.812;4.422;2022-11-24T02:54:32;16.17;;;4.87;;
14484;SDS011;7328;50.812;4.422;2022-11-24T02:57:02;19.53;;;4.70;;
14484;SDS011;7328;50.812;4.422;2022-11-24T02:59:28;26.13;;;5.60;;
14484;SDS011;7328;50.812;4.422;2022-11-24T03:01:54;26.47;;;5.03;;
14484;SDS011;7328;50.812;4.422;2022-11-24T03:04:20;20.13;;;5.60;;
14484;SDS011;7328;50.812;4.422;2022-11-24T03:06:46;15.67;;;4.53;;
14484;SDS011;7328;50.812;4.422;2022-11-24T03:09:11;31.13;;;5.97;;
14484;SDS011;7328;50.812;4.422;2022-11-24T03:11:37;20.00;;;4.50;;
14484;SDS011;7328;50.812;4.422;2022-11-24T03:14:03;13.73;;;3.77;;
14484;SDS011;7328;50.812;4.422;2022-11-24T03:16:29;10.70;;;3.47;;
14484;SDS011;7328;50.812;4.422;2022-11-24T03:18:55;17.37;;;4.77;;
14484;SDS011;7328;50.812;4.422;2022-11-24T03:21:21;16.23;;;3.53;;
14484;SDS011;7328;50.812;4.422;2022-11-24T03:23:47;11.07;;;3.47;;
14484;SDS011;7328;50.812;4.422;2022-11-24T03:26:14;18.97;;;4.10;;
14484;SDS011;7328;50.812;4.422;2022-11-24T03:28:41;8.23;;;3.40;;
14484;SDS011;7328;50.812;4.422;2022-11-24T03:31:09;14.77;;;3.73;;
14484;SDS011;7328;50.812;4.422;2022-11-24T03:33:36;10.47;;;1.90;;
14484;SDS011;7328;50.812;4.422;2022-11-24T03:36:02;4.83;;;1.87;;
14484;SDS011;7328;50.812;4.422;2022-11-24T03:38:28;7.97;;;1.97;;
14484;SDS011;7328;50.812;4.422;2022-11-24T03:40:58;11.73;;;2.67;;
14484;SDS011;7328;50.812;4.422;2022-11-24T03:43:26;9.03;;;2.93;;
14484;SDS011;7328;50.812;4.422;2022-11-24T03:45:52;13.87;;;3.70;;
14484;SDS011;7328;50.812;4.422;2022-11-24T03:48:21;10.37;;;3.20;;
14484;SDS011;7328;50.812;4.422;2022-11-24T03:50:56;6.83;;;2.77;;
14484;SDS011;7328;50.812;4.422;2022-11-24T03:53:23;13.70;;;2.80;;
14484;SDS011;7328;50.812;4.422;2022-11-24T03:55:50;6.93;;;2.00;;
14484;SDS011;7328;50.812;4.422;2022-11-24T03:58:16;21.63;;;4.17;;
14484;SDS011;7328;50.812;4.422;2022-11-24T04:00:43;10.60;;;2.50;;
14484;SDS011;7328;50.812;4.422;2022-11-24T04:03:09;7.03;;;1.90;;
14484;SDS011;7328;50.812;4.422;2022-11-24T04:05:35;5.77;;;2.57;;
14484;SDS011;7328;50.812;4.422;2022-11-24T04:08:02;9.90;;;1.83;;
14484;SDS011;7328;50.812;4.422;2022-11-24T04:10:30;6.53;;;2.23;;
14484;SDS011;7328;50.812;4.422;2022-11-24T04:12:56;7.10;;;2.80;;
14484;SDS011;7328;50.812;4.422;2022-11-24T04:15:22;5.60;;;1.17;;
14484;SDS011;7328;50.812;4.422;2022-11-24T04:17:48;6.50;;;2.10;;
14484;SDS011;7328;50.812;4.422;2022-11-24T04:20:15;3.73;;;2.13;;
14484;SDS011;7328;50.812;4.422;2022-11-24T04:22:41;6.43;;;1.37;;
14484;SDS011;7328;50.812;4.422;2022-11-24T04:25:08;1.00;;;0.97;;
14484;SDS011;7328;50.812;4.422;2022-11-24T04:27:35;4.53;;;1.37;;
14484;SDS011;7328;50.812;4.422;2022-11-24T04:30:05;8.17;;;1.30;;
14484;SDS011;7328;50.812;4.422;2022-11-24T04:32:31;5.50;;;1.53;;
14484;SDS011;7328;50.812;4.422;2022-11-24T04:34:57;2.33;;;1.00;;
14484;SDS011;7328;50.812;4.422;2022-11-24T04:37:23;2.93;;;1.07;;
14484;SDS011;7328;50.812;4.422;2022-11-24T04:39:49;6.30;;;1.07;;
14484;SDS011;7328;50.812;4.422;2022-11-24T04:42:15;1.00;;;0.73;;
14484;SDS011;7328;50.812;4.422;2022-11-24T04:44:40;1.80;;;0.60;;
14484;SDS011;7328;50.812;4.422;2022-11-24T04:47:06;3.27;;;1.13;;
14484;SDS011;7328;50.812;4.422;2022-11-24T04:49:36;2.63;;;1.00;;
14484;SDS011;7328;50.812;4.422;2022-11-24T04:52:02;1.70;;;0.90;;
14484;SDS011;7328;50.812;4.422;2022-11-24T04:54:28;3.50;;;1.50;;
14484;SDS011;7328;50.812;4.422;2022-11-24T04:56:54;2.27;;;0.90;;
14484;SDS011;7328;50.812;4.422;2022-11-24T04:59:20;3.37;;;0.70;;
14484;SDS011;7328;50.812;4.422;2022-11-24T05:01:45;2.20;;;0.70;;
14484;SDS011;7328;50.812;4.422;2022-11-24T05:04:12;0.60;;;0.50;;
14484;SDS011;7328;50.812;4.422;2022-11-24T05:06:39;2.10;;;0.63;;
14484;SDS011;7328;50.812;4.422;2022-11-24T05:09:05;4.00;;;1.23;;
14484;SDS011;7328;50.812;4.422;2022-11-24T05:11:32;3.03;;;0.67;;
14484;SDS011;7328;50.812;4.422;2022-11-24T05:13:59;3.17;;;1.00;;
14484;SDS011;7328;50.812;4.422;2022-11-24T05:16:26;4.07;;;0.93;;
14484;SDS011;7328;50.812;4.422;2022-11-24T05:18:52;8.80;;;1.00;;
14484;SDS011;7328;50.812;4.422;2022-11-24T05:21:18;3.20;;;0.70;;
14484;SDS011;7328;50.812;4.422;2022-11-24T05:23:43;5.87;;;1.27;;
14484;SDS011;7328;50.812;4.422;2022-11-24T05:26:09;5.77;;;0.97;;
14484;SDS011;7328;50.812;4.422;2022-11-24T05:28:35;3.17;;;1.10;;
14484;SDS011;7328;50.812;4.422;2022-11-24T05:31:02;3.33;;;1.07;;
14484;SDS011;7328;50.812;4.422;2022-11-24T05:33:29;5.40;;;3.20;;
14484;SDS011;7328;50.812;4.422;2022-11-24T05:36:03;3.80;;;1.37;;
14484;SDS011;7328;50.812;4.422;2022-11-24T05:38:31;7.10;;;1.27;;
14484;SDS011;7328;50.812;4.422;2022-11-24T05:41:02;7.53;;;1.30;;
14484;SDS011;7328;50.812;4.422;2022-11-24T05:43:30;5.50;;;2.03;;
14484;SDS011;7328;50.812;4.422;2022-11-24T05:45:59;6.03;;;1.10;;
14484;SDS011;7328;50.812;4.422;2022-11-24T05:48:33;12.53;;;1.90;;
14484;SDS011;7328;50.812;4.422;2022-11-24T05:51:12;8.50;;;1.83;;
14484;SDS011;7328;50.812;4.422;2022-11-24T05:53:37;12.63;;;2.30;;
14484;SDS011;7328;50.812;4.422;2022-11-24T05:56:03;4.93;;;2.03;;
14484;SDS011;7328;50.812;4.422;2022-11-24T05:58:29;5.80;;;1.70;;
14484;SDS011;7328;50.812;4.422;2022-11-24T06:00:55;7.93;;;2.10;;
14484;SDS011;7328;50.812;4.422;2022-11-24T06:03:21;15.83;;;3.73;;
14484;SDS011;7328;50.812;4.422;2022-11-24T06:05:47;11.97;;;2.97;;
14484;SDS011;7328;50.812;4.422;2022-11-24T06:08:13;10.70;;;2.73;;
14484;SDS011;7328;50.812;4.422;2022-11-24T06:10:39;9.80;;;2.77;;
14484;SDS011;7328;50.812;4.422;2022-11-24T06:13:05;17.33;;;3.60;;
14484;SDS011;7328;50.812;4.422;2022-11-24T06:15:34;8.97;;;3.00;;
14484;SDS011;7328;50.812;4.422;2022-11-24T06:18:01;9.90;;;2.10;;
14484;SDS011;7328;50.812;4.422;2022-11-24T06:20:27;9.63;;;3.20;;
14484;SDS011;7328;50.812;4.422;2022-11-24T06:22:53;9.90;;;3.27;;
14484;SDS011;7328;50.812;4.422;2022-11-24T06:25:22;9.27;;;2.77;;
14484;SDS011;7328;50.812;4.422;2022-11-24T06:27:48;13.60;;;2.70;;
14484;SDS011;7328;50.812;4.422;2022-11-24T06:30:13;14.80;;;3.87;;
14484;SDS011;7328;50.812;4.422;2022-11-24T06:32:39;7.50;;;2.43;;
14484;SDS011;7328;50.812;4.422;2022-11-24T06:35:09;15.33;;;4.40;;
14484;SDS011;7328;50.812;4.422;2022-11-24T06:37:36;9.07;;;3.47;;
14484;SDS011;7328;50.812;4.422;2022-11-24T06:40:02;13.60;;;2.50;;
14484;SDS011;7328;50.812;4.422;2022-11-24T06:42:28;10.47;;;3.20;;
14484;SDS011;7328;50.812;4.422;2022-11-24T06:44:54;9.30;;;3.13;;
14484;SDS011;7328;50.812;4.422;2022-11-24T06:47:20;7.10;;;2.93;;
14484;SDS011;7328;50.812;4.422;2022-11-24T06:49:46;5.87;;;2.47;;
14484;SDS011;7328;50.812;4.422;2022-11-24T06:52:11;4.50;;;1.70;;
14484;SDS011;7328;50.812;4.422;2022-11-24T06:54:37;12.97;;;3.20;;
14484;SDS011;7328;50.812;4.422;2022-11-24T06:57:03;8.23;;;2.93;;
14484;SDS011;7328;50.812;4.422;2022-11-24T06:59:28;12.23;;;2.83;;
14484;SDS011;7328;50.812;4.422;2022-11-24T07:01:54;4.77;;;1.87;;
14484;SDS011;7328;50.812;4.422;2022-11-24T07:04:20;5.40;;;2.07;;
14484;SDS011;7328;50.812;4.422;2022-11-24T07:06:46;11.90;;;2.80;;
14484;SDS011;7328;50.812;4.422;2022-11-24T07:09:11;11.80;;;3.00;;
14484;SDS011;7328;50.812;4.422;2022-11-24T07:11:38;6.17;;;2.10;;
14484;SDS011;7328;50.812;4.422;2022-11-24T07:14:05;11.53;;;2.37;;
14484;SDS011;7328;50.812;4.422;2022-11-24T07:16:31;11.97;;;1.83;;
14484;SDS011;7328;50.812;4.422;2022-11-24T07:18:57;10.67;;;4.07;;
14484;SDS011;7328;50.812;4.422;2022-11-24T07:21:24;18.60;;;2.30;;
14484;SDS011;7328;50.812;4.422;2022-11-24T07:23:52;8.37;;;2.07;;
14484;SDS011;7328;50.812;4.422;2022-11-24T07:26:19;13.03;;;2.23;;
14484;SDS011;7328;50.812;4.422;2022-11-24T07:28:46;10.83;;;1.70;;
14484;SDS011;7328;50.812;4.422;2022-11-24T07:31:16;2.70;;;1.87;;
14484;SDS011;7328;50.812;4.422;2022-11-24T07:33:52;6.00;;;3.20;;
14484;SDS011;7328;50.812;4.422;2022-11-24T07:36:19;3.77;;;2.30;;
14484;SDS011;7328;50.812;4.422;2022-11-24T07:38:46;8.20;;;2.13;;
14484;SDS011;7328;50.812;4.422;2022-11-24T07:41:12;5.63;;;2.13;;
14484;SDS011;7328;50.812;4.422;2022-11-24T07:43:40;3.63;;;1.63;;
14484;SDS011;7328;50.812;4.422;2022-11-24T07:46:06;8.30;;;2.53;;
14484;SDS011;7328;50.812;4.422;2022-11-24T07:48:35;11.27;;;2.30;;
14484;SDS011;7328;50.812;4.422;2022-11-24T07:51:01;5.57;;;1.53;;
14484;SDS011;7328;50.812;4.422;2022-11-24T07:53:29;6.90;;;2.50;;
14484;SDS011;7328;50.812;4.422;2022-11-24T07:55:56;8.77;;;2.30;;
14484;SDS011;7328;50.812;4.422;2022-11-24T07:58:25;7.23;;;3.10;;
14484;SDS011;7328;50.812;4.422;2022-11-24T08:00:52;4.07;;;2.30;;
14484;SDS011;7328;50.812;4.422;2022-11-24T08:03:18;7.10;;;3.03;;
14484;SDS011;7328;50.812;4.422;2022-11-24T08:05:52;14.07;;;2.73;;
14484;SDS011;7328;50.812;4.422;2022-11-24T08:08:24;9.93;;;2.00;;
14484;SDS011;7328;50.812;4.422;2022-11-24T08:10:50;8.03;;;2.13;;
14484;SDS011;7328;50.812;4.422;2022-11-24T08:13:16;11.30;;;2.10;;
14484;SDS011;7328;50.812;4.422;2022-11-24T08:15:43;6.10;;;2.87;;
14484;SDS011;7328;50.812;4.422;2022-11-24T08:18:09;9.53;;;2.80;;
14484;SDS011;7328;50.812;4.422;2022-11-24T08:20:35;9.90;;;2.50;;
14484;SDS011;7328;50.812;4.422;2022-11-24T08:23:01;10.27;;;2.67;;
14484;SDS011;7328;50.812;4.422;2022-11-24T08:25:27;11.23;;;3.03;;
14484;SDS011;7328;50.812;4.422;2022-11-24T08:27:57;12.07;;;2.87;;
14484;SDS011;7328;50.812;4.422;2022-11-24T08:30:24;12.70;;;2.80;;
14484;SDS011;7328;50.812;4.422;2022-11-24T08:32:50;10.37;;;3.10;;
14484;SDS011;7328;50.812;4.422;2022-11-24T08:35:15;11.03;;;2.83;;
14484;SDS011;7328;50.812;4.422;2022-11-24T08:37:41;12.97;;;2.33;;
14484;SDS011;7328;50.812;4.422;2022-11-24T08:40:09;9.57;;;2.93;;
14484;SDS011;7328;50.812;4.422;2022-11-24T08:42:36;8.87;;;2.50;;
14484;SDS011;7328;50.812;4.422;2022-11-24T08:45:02;8.40;;;2.23;;
14484;SDS011;7328;50.812;4.422;2022-11-24T08:47:28;11.10;;;3.03;;
14484;SDS011;7328;50.812;4.422;2022-11-24T08:49:54;11.33;;;2.93;;
14484;SDS011;7328;50.812;4.422;2022-11-24T08:52:19;8.27;;;1.90;;
14484;SDS011;7328;50.812;4.422;2022-11-24T08:54:45;9.23;;;2.27;;
14484;SDS011;7328;50.812;4.422;2022-11-24T08:57:12;12.43;;;3.77;;
14484;SDS011;7328;50.812;4.422;2022-11-24T08:59:38;6.50;;;2.27;;
14484;SDS011;7328;50.812;4.422;2022-11-24T09:02:04;5.37;;;2.30;;
14484;SDS011;7328;50.812;4.422;2022-11-24T09:04:30;18.90;;;3.07;;
14484;SDS011;7328;50.812;4.422;2022-11-24T09:06:56;9.40;;;2.57;;
14484;SDS011;7328;50.812;4.422;2022-11-24T09:09:22;12.27;;;2.67;;
14484;SDS011;7328;50.812;4.422;2022-11-24T09:11:48;12.80;;;2.87;;
14484;SDS011;7328;50.812;4.422;2022-11-24T09:14:14;14.57;;;2.90;;
14484;SDS011;7328;50.812;4.422;2022-11-24T09:16:40;8.70;;;2.27;;
14484;SDS011;7328;50.812;4.422;2022-11-24T09:19:06;11.97;;;3.30;;
14484;SDS011;7328;50.812;4.422;2022-11-24T09:21:33;12.17;;;3.50;;
14484;SDS011;7328;50.812;4.422;2022-11-24T09:24:02;7.33;;;2.50;;
14484;SDS011;7328;50.812;4.422;2022-11-24T09:26:29;9.17;;;3.33;;
14484;SDS011;7328;50.812;4.422;2022-11-24T09:28:57;9.73;;;3.13;;
14484;SDS011;7328;50.812;4.422;2022-11-24T09:31:24;11.20;;;3.13;;
14484;SDS011;7328;50.812;4.422;2022-11-24T09:33:52;8.43;;;2.67;;
14484;SDS011;7328;50.812;4.422;2022-11-24T09:36:18;10.37;;;2.03;;
14484;SDS011;7328;50.812;4.422;2022-11-24T09:38:44;7.30;;;1.90;;
14484;SDS011;7328;50.812;4.422;2022-11-24T09:43:55;9.50;;;3.13;;
14484;SDS011;7328;50.812;4.422;2022-11-24T09:46:50;10.93;;;2.53;;
14484;SDS011;7328;50.812;4.422;2022-11-24T09:49:33;12.50;;;3.37;;
14484;SDS011;7328;50.812;4.422;2022-11-24T09:52:09;4.80;;;2.50;;
14484;SDS011;7328;50.812;4.422;2022-11-24T09:54:41;9.10;;;2.60;;
14484;SDS011;7328;50.812;4.422;2022-11-24T09:57:17;16.33;;;2.87;;
14484;SDS011;7328;50.812;4.422;2022-11-24T09:59:48;8.83;;;2.77;;
14484;SDS011;7328;50.812;4.422;2022-11-24T10:02:14;6.13;;;2.27;;
14484;SDS011;7328;50.812;4.422;2022-11-24T10:04:43;9.87;;;2.27;;
14484;SDS011;7328;50.812;4.422;2022-11-24T10:25:57;9.37;;;2.37;;
14484;SDS011;7328;50.812;4.422;2022-11-24T10:28:32;12.10;;;3.83;;
14484;SDS011;7328;50.812;4.422;2022-11-24T10:31:35;12.63;;;2.67;;
14484;SDS011;7328;50.812;4.422;2022-11-24T10:34:12;20.70;;;4.80;;
14484;SDS011;7328;50.812;4.422;2022-11-24T10:36:52;19.70;;;4.43;;
14484;SDS011;7328;50.812;4.422;2022-11-24T10:45:13;12.67;;;3.93;;
14484;SDS011;7328;50.812;4.422;2022-11-24T10:47:41;13.33;;;3.73;;
14484;SDS011;7328;50.812;4.422;2022-11-24T10:50:14;12.63;;;4.20;;
14484;SDS011;7328;50.812;4.422;2022-11-24T10:58:34;12.13;;;2.30;;
14484;SDS011;7328;50.812;4.422;2022-11-24T11:03:51;12.00;;;3.67;;
14484;SDS011;7328;50.812;4.422;2022-11-24T11:06:25;10.60;;;3.40;;
14484;SDS011;7328;50.812;4.422;2022-11-24T11:11:31;14.53;;;4.87;;
14484;SDS011;7328;50.812;4.422;2022-11-24T11:13:59;15.30;;;3.77;;
14484;SDS011;7328;50.812;4.422;2022-11-24T11:16:37;19.37;;;3.57;;
14484;SDS011;7328;50.812;4.422;2022-11-24T11:22:00;12.97;;;4.37;;
14484;SDS011;7328;50.812;4.422;2022-11-24T11:24:28;10.07;;;3.77;;
14484;SDS011;7328;50.812;4.422;2022-11-24T11:27:01;12.33;;;3.73;;
14484;SDS011;7328;50.812;4.422;2022-11-24T11:29:29;10.03;;;2.97;;
14484;SDS011;7328;50.812;4.422;2022-11-24T11:31:56;11.30;;;2.87;;
14484;SDS011;7328;50.812;4.422;2022-11-24T11:34:23;15.17;;;3.07;;
14484;SDS011;7328;50.812;4.422;2022-11-24T11:36:49;17.20;;;4.50;;
14484;SDS011;7328;50.812;4.422;2022-11-24T11:56:36;16.83;;;4.93;;
14484;SDS011;7328;50.812;4.422;2022-11-24T12:05:17;14.30;;;4.17;;
14484;SDS011;7328;50.812;4.422;2022-11-24T12:10:52;20.80;;;3.70;;
14484;SDS011;7328;50.812;4.422;2022-11-24T12:16:15;17.67;;;3.33;;
14484;SDS011;7328;50.812;4.422;2022-11-24T12:22:12;16.60;;;4.13;;
14484;SDS011;7328;50.812;4.422;2022-11-24T12:30:18;14.00;;;4.40;;
14484;SDS011;7328;50.812;4.422;2022-11-24T12:43:28;12.23;;;4.23;;
14484;SDS011;7328;50.812;4.422;2022-11-24T12:51:30;16.23;;;4.90;;
14484;SDS011;7328;50.812;4.422;2022-11-24T12:54:00;19.43;;;4.03;;
14484;SDS011;7328;50.812;4.422;2022-11-24T12:59:19;9.43;;;3.37;;
14484;SDS011;7328;50.812;4.422;2022-11-24T13:02:20;15.73;;;3.90;;
14484;SDS011;7328;50.812;4.422;2022-11-24T13:05:22;13.30;;;2.70;;
14484;SDS011;7328;50.812;4.422;2022-11-24T13:07:55;9.90;;;4.83;;
14484;SDS011;7328;50.812;4.422;2022-11-24T13:12:53;22.17;;;4.40;;
14484;SDS011;7328;50.812;4.422;2022-11-24T13:15:25;8.97;;;3.23;;
14484;SDS011;7328;50.812;4.422;2022-11-24T13:17:52;14.23;;;3.70;;
14484;SDS011;7328;50.812;4.422;2022-11-24T13:22:48;9.67;;;3.57;;
14484;SDS011;7328;50.812;4.422;2022-11-24T13:27:48;11.13;;;4.63;;
14484;SDS011;7328;50.812;4.422;2022-11-24T13:33:01;9.73;;;3.13;;
14484;SDS011;7328;50.812;4.422;2022-11-24T13:38:38;12.80;;;4.90;;
14484;SDS011;7328;50.812;4.422;2022-11-24T13:41:08;11.07;;;3.50;;
14484;SDS011;7328;50.812;4.422;2022-11-24T13:47:27;10.10;;;3.90;;
14484;SDS011;7328;50.812;4.422;2022-11-24T13:49:38;16.17;;;3.83;;
14484;SDS011;7328;50.812;4.422;2022-11-24T13:54:59;7.97;;;3.10;;
14484;SDS011;7328;50.812;4.422;2022-11-24T13:57:45;12.90;;;3.83;;
14484;SDS011;7328;50.812;4.422;2022-11-24T14:00:25;15.50;;;3.67;;
14484;SDS011;7328;50.812;4.422;2022-11-24T14:02:51;10.90;;;3.60;;
14484;SDS011;7328;50.812;4.422;2022-11-24T14:05:21;18.53;;;4.87;;
14484;SDS011;7328;50.812;4.422;2022-11-24T14:07:57;18.03;;;4.73;;
14484;SDS011;7328;50.812;4.422;2022-11-24T14:10:27;16.73;;;3.70;;
14484;SDS011;7328;50.812;4.422;2022-11-24T14:18:43;13.03;;;3.60;;
14484;SDS011;7328;50.812;4.422;2022-11-24T14:23:55;12.60;;;3.30;;
14484;SDS011;7328;50.812;4.422;2022-11-24T14:26:33;15.63;;;3.80;;
14484;SDS011;7328;50.812;4.422;2022-11-24T14:29:04;25.63;;;4.43;;
14484;SDS011;7328;50.812;4.422;2022-11-24T14:31:41;18.70;;;4.13;;
14484;SDS011;7328;50.812;4.422;2022-11-24T14:36:36;15.60;;;4.70;;
14484;SDS011;7328;50.812;4.422;2022-11-24T14:39:05;10.90;;;4.07;;
14484;SDS011;7328;50.812;4.422;2022-11-24T14:41:36;17.03;;;3.73;;
14484;SDS011;7328;50.812;4.422;2022-11-24T14:44:02;15.57;;;4.03;;
14484;SDS011;7328;50.812;4.422;2022-11-24T14:46:29;18.03;;;4.23;;
14484;SDS011;7328;50.812;4.422;2022-11-24T14:48:55;10.17;;;3.20;;
14484;SDS011;7328;50.812;4.422;2022-11-24T14:51:28;24.20;;;4.97;;
14484;SDS011;7328;50.812;4.422;2022-11-24T14:54:11;10.17;;;3.87;;
14484;SDS011;7328;50.812;4.422;2022-11-24T14:56:40;22.70;;;4.23;;
14484;SDS011;7328;50.812;4.422;2022-11-24T14:59:20;24.30;;;5.60;;
14484;SDS011;7328;50.812;4.422;2022-11-24T15:01:47;14.97;;;3.43;;
14484;SDS011;7328;50.812;4.422;2022-11-24T15:04:17;12.10;;;3.43;;
14484;SDS011;7328;50.812;4.422;2022-11-24T15:06:58;20.20;;;4.17;;
14484;SDS011;7328;50.812;4.422;2022-11-24T15:17:47;12.10;;;3.33;;
14484;SDS011;7328;50.812;4.422;2022-11-24T15:22:48;12.23;;;3.47;;
14484;SDS011;7328;50.812;4.422;2022-11-24T15:25:27;12.17;;;4.23;;
14484;SDS011;7328;50.812;4.422;2022-11-24T15:27:55;17.27;;;4.20;;
14484;SDS011;7328;50.812;4.422;2022-11-24T15:30:21;9.17;;;3.40;;
14484;SDS011;7328;50.812;4.422;2022-11-24T15:32:48;12.00;;;3.17;;
14484;SDS011;7328;50.812;4.422;2022-11-24T15:35:18;14.20;;;4.13;;
14484;SDS011;7328;50.812;4.422;2022-11-24T15:37:45;13.87;;;3.27;;
14484;SDS011;7328;50.812;4.422;2022-11-24T15:40:11;16.30;;;4.83;;
14484;SDS011;7328;50.812;4.422;2022-11-24T15:42:37;12.03;;;4.13;;
14484;SDS011;7328;50.812;4.422;2022-11-24T15:45:03;11.53;;;4.17;;
14484;SDS011;7328;50.812;4.422;2022-11-24T15:47:29;13.10;;;5.30;;
14484;SDS011;7328;50.812;4.422;2022-11-24T15:49:56;12.47;;;3.47;;
14484;SDS011;7328;50.812;4.422;2022-11-24T15:52:22;9.30;;;3.07;;
14484;SDS011;7328;50.812;4.422;2022-11-24T15:54:50;13.57;;;4.20;;
14484;SDS011;7328;50.812;4.422;2022-11-24T15:57:18;11.87;;;3.43;;
14484;SDS011;7328;50.812;4.422;2022-11-24T15:59:44;15.07;;;4.13;;
14484;SDS011;7328;50.812;4.422;2022-11-24T16:02:10;12.43;;;4.47;;
14484;SDS011;7328;50.812;4.422;2022-11-24T16:04:36;11.17;;;3.47;;
14484;SDS011;7328;50.812;4.422;2022-11-24T16:07:05;16.50;;;5.47;;
14484;SDS011;7328;50.812;4.422;2022-11-24T16:09:37;10.67;;;4.37;;
14484;SDS011;7328;50.812;4.422;2022-11-24T16:12:03;10.47;;;4.73;;
14484;SDS011;7328;50.812;4.422;2022-11-24T16:14:29;17.37;;;4.93;;
14484;SDS011;7328;50.812;4.422;2022-11-24T16:16:55;14.70;;;4.20;;
14484;SDS011;7328;50.812;4.422;2022-11-24T16:19:21;12.00;;;3.73;;
14484;SDS011;7328;50.812;4.422;2022-11-24T16:21:47;15.40;;;3.90;;
14484;SDS011;7328;50.812;4.422;2022-11-24T16:24:13;12.73;;;3.73;;
14484;SDS011;7328;50.812;4.422;2022-11-24T16:26:38;19.17;;;4.77;;
14484;SDS011;7328;50.812;4.422;2022-11-24T16:29:04;13.17;;;4.23;;
14484;SDS011;7328;50.812;4.422;2022-11-24T16:31:30;16.23;;;4.80;;
14484;SDS011;7328;50.812;4.422;2022-11-24T16:33:56;23.30;;;7.87;;
14484;SDS011;7328;50.812;4.422;2022-11-24T16:36:22;15.87;;;7.70;;
14484;SDS011;7328;50.812;4.422;2022-11-24T16:38:48;31.27;;;25.37;;
14484;SDS011;7328;50.812;4.422;2022-11-24T16:41:13;20.00;;;11.50;;
14484;SDS011;7328;50.812;4.422;2022-11-24T16:43:40;13.53;;;7.47;;
14484;SDS011;7328;50.812;4.422;2022-11-24T16:48:41;29.03;;;14.77;;
14484;SDS011;7328;50.812;4.422;2022-11-24T16:51:08;14.70;;;9.33;;
14484;SDS011;7328;50.812;4.422;2022-11-24T16:53:35;13.47;;;7.33;;
14484;SDS011;7328;50.812;4.422;2022-11-24T16:56:01;30.23;;;14.03;;
14484;SDS011;7328;50.812;4.422;2022-11-24T16:58:28;23.43;;;8.20;;
14484;SDS011;7328;50.812;4.422;2022-11-24T17:00:53;18.23;;;8.87;;
14484;SDS011;7328;50.812;4.422;2022-11-24T17:03:19;24.37;;;12.17;;
14484;SDS011;7328;50.812;4.422;2022-11-24T17:05:58;23.03;;;14.50;;
14484;SDS011;7328;50.812;4.422;2022-11-24T17:08:24;15.77;;;7.27;;
14484;SDS011;7328;50.812;4.422;2022-11-24T17:10:50;14.70;;;8.30;;
14484;SDS011;7328;50.812;4.422;2022-11-24T17:13:16;20.10;;;13.30;;
14484;SDS011;7328;50.812;4.422;2022-11-24T17:15:42;12.57;;;8.60;;
14484;SDS011;7328;50.812;4.422;2022-11-24T17:18:08;18.47;;;8.03;;
14484;SDS011;7328;50.812;4.422;2022-11-24T17:20:33;16.23;;;10.27;;
14484;SDS011;7328;50.812;4.422;2022-11-24T17:23:00;21.00;;;10.87;;
14484;SDS011;7328;50.812;4.422;2022-11-24T17:25:26;20.33;;;5.00;;
14484;SDS011;7328;50.812;4.422;2022-11-24T17:27:52;27.03;;;7.30;;
14484;SDS011;7328;50.812;4.422;2022-11-24T17:30:18;12.97;;;6.70;;
14484;SDS011;7328;50.812;4.422;2022-11-24T17:32:44;16.97;;;4.67;;